createdAt,value
2022-12-24T00:00:12.468Z,34.28
2022-12-24T00:01:10.206Z,32.95
2022-12-24T00:02:06.943Z,32.70
2022-12-24T00:03:03.869Z,39.08
2022-12-24T00:04:00.836Z,37.05
2022-12-24T00:05:01.178Z,39.20
2022-12-24T00:05:58.425Z,34.17
2022-12-24T00:06:55.027Z,36.58
2022-12-24T00:07:51.677Z,35.75
2022-12-24T00:08:49.001Z,33.53
2022-12-24T00:09:45.585Z,38.85
2022-12-24T00:10:42.154Z,41.60
2022-12-24T00:11:38.739Z,34.33
2022-12-24T00:12:35.811Z,29.17
2022-12-24T00:13:32.456Z,32.58
2022-12-24T00:14:29.202Z,35.75
2022-12-24T00:15:25.821Z,41.53
2022-12-24T00:16:22.559Z,38.85
2022-12-24T00:17:19.126Z,53.47
2022-12-24T00:18:16.465Z,40.70
2022-12-24T00:19:13.253Z,37.08
2022-12-24T00:20:10.288Z,44.90
2022-12-24T00:21:07.159Z,50.47
2022-12-24T00:22:03.784Z,42.70
2022-12-24T00:23:00.366Z,36.03
2022-12-24T00:23:57.003Z,36.53
2022-12-24T00:24:53.717Z,36.67
2022-12-24T00:25:50.536Z,24.55
2022-12-24T00:26:47.229Z,36.25
2022-12-24T00:27:43.866Z,39.00
2022-12-24T00:28:40.868Z,38.72
2022-12-24T00:29:37.582Z,35.25
2022-12-24T00:30:34.452Z,35.50
2022-12-24T00:31:31.315Z,39.35
2022-12-24T00:32:27.986Z,40.03
2022-12-24T00:33:24.971Z,28.95
2022-12-24T00:34:24.407Z,30.25
2022-12-24T00:35:21.121Z,37.28
2022-12-24T00:36:18.723Z,31.90
2022-12-24T00:37:15.417Z,32.05
2022-12-24T00:38:12.032Z,31.65
2022-12-24T00:39:08.744Z,27.73
2022-12-24T00:40:05.945Z,32.63
2022-12-24T00:41:04.797Z,30.83
2022-12-24T00:42:01.425Z,32.83
2022-12-24T00:42:58.351Z,28.42
2022-12-24T00:43:59.654Z,26.13
2022-12-24T00:44:56.250Z,30.45
2022-12-24T00:45:52.970Z,31.50
2022-12-24T00:46:49.687Z,27.38
2022-12-24T00:47:46.266Z,24.92
2022-12-24T00:48:42.847Z,26.20
2022-12-24T00:49:39.546Z,25.55
2022-12-24T00:50:36.127Z,26.48
2022-12-24T00:51:33.805Z,30.33
2022-12-24T00:52:30.769Z,32.90
2022-12-24T00:53:27.437Z,34.95
2022-12-24T00:54:24.070Z,46.00
2022-12-24T00:55:20.782Z,46.72
2022-12-24T00:56:17.792Z,63.42
2022-12-24T00:57:14.404Z,70.68
2022-12-24T00:58:12.301Z,60.83
2022-12-24T00:59:08.872Z,57.97
2022-12-24T01:00:06.384Z,67.78
2022-12-24T01:01:03.430Z,76.47
2022-12-24T01:02:00.290Z,68.10
2022-12-24T01:02:57.267Z,66.22
2022-12-24T01:04:14.467Z,67.50
2022-12-24T01:05:12.170Z,63.60
2022-12-24T01:06:13.108Z,77.45
2022-12-24T01:07:09.735Z,85.07
2022-12-24T01:08:06.396Z,88.13
2022-12-24T01:09:03.072Z,69.97
2022-12-24T01:09:59.700Z,77.60
2022-12-24T01:10:56.836Z,75.03
2022-12-24T01:11:53.577Z,61.67
2022-12-24T01:12:50.276Z,75.00
2022-12-24T01:13:46.928Z,75.72
2022-12-24T01:14:43.591Z,62.03
2022-12-24T01:15:40.285Z,67.18
2022-12-24T01:16:36.941Z,73.88
2022-12-24T01:17:34.835Z,73.10
2022-12-24T01:18:31.464Z,73.05
2022-12-24T01:19:28.181Z,68.70
2022-12-24T01:20:27.056Z,69.78
2022-12-24T01:21:23.766Z,70.53
2022-12-24T01:22:20.387Z,65.53
2022-12-24T01:23:16.950Z,64.90
2022-12-24T01:24:15.878Z,57.97
2022-12-24T01:25:12.698Z,51.33
2022-12-24T01:26:12.323Z,50.38
2022-12-24T01:27:09.506Z,52.13
2022-12-24T01:28:06.610Z,49.40
2022-12-24T01:29:04.493Z,43.30
2022-12-24T01:30:01.241Z,41.80
2022-12-24T01:30:57.923Z,37.83
2022-12-24T01:31:54.744Z,44.90
2022-12-24T01:32:51.385Z,39.35
2022-12-24T01:33:49.275Z,34.67
2022-12-24T01:34:45.888Z,88.78
2022-12-24T01:35:43.464Z,125.20
2022-12-24T01:36:40.170Z,65.32
2022-12-24T01:37:36.928Z,40.35
2022-12-24T01:38:33.698Z,63.88
2022-12-24T01:39:30.478Z,82.75
2022-12-24T01:40:45.918Z,46.10
2022-12-24T01:42:01.055Z,45.20
2022-12-24T01:43:16.478Z,45.05
2022-12-24T01:44:27.219Z,42.55
2022-12-24T01:45:40.501Z,38.60
2022-12-24T01:46:37.147Z,36.60
2022-12-24T01:47:33.885Z,46.10
2022-12-24T01:49:04.028Z,46.22
2022-12-24T01:50:12.944Z,49.60
2022-12-24T01:51:27.813Z,70.63
2022-12-24T01:52:28.697Z,56.03
2022-12-24T01:53:26.027Z,62.47
2022-12-24T01:54:26.193Z,52.45
2022-12-24T01:55:23.531Z,59.08
2022-12-24T01:56:21.330Z,68.55
2022-12-24T01:57:21.775Z,56.63
2022-12-24T01:58:20.611Z,54.60
2022-12-24T01:59:19.343Z,60.10
2022-12-24T02:00:16.421Z,69.82
2022-12-24T02:01:13.200Z,63.78
2022-12-24T02:02:10.860Z,64.15
2022-12-24T02:03:07.781Z,63.35
2022-12-24T02:04:13.434Z,79.85
2022-12-24T02:05:22.610Z,68.53
2022-12-24T02:06:20.759Z,82.07
2022-12-24T02:07:17.832Z,82.57
2022-12-24T02:08:15.542Z,82.88
2022-12-24T02:09:12.200Z,81.75
2022-12-24T02:10:12.983Z,95.00
2022-12-24T02:11:19.058Z,138.57
2022-12-24T02:12:15.920Z,121.65
2022-12-24T02:13:14.517Z,223.00
2022-12-24T02:14:12.086Z,226.25
2022-12-24T02:15:12.136Z,169.25
2022-12-24T02:16:30.407Z,208.45
2022-12-24T02:17:36.183Z,119.63
2022-12-24T02:18:44.596Z,108.43
2022-12-24T02:20:04.079Z,99.03
2022-12-24T02:21:22.191Z,124.03
2022-12-24T02:22:42.342Z,92.70
2022-12-24T02:24:02.776Z,84.88
2022-12-24T02:25:18.101Z,78.15
2022-12-24T02:26:32.855Z,76.60
2022-12-24T02:27:55.176Z,67.00
2022-12-24T02:29:06.719Z,75.70
2022-12-24T02:30:12.418Z,74.00
2022-12-24T02:31:16.619Z,73.40
2022-12-24T02:32:27.334Z,79.20
2022-12-24T02:33:35.923Z,75.90
2022-12-24T02:35:09.957Z,70.78
2022-12-24T02:36:13.591Z,85.57
2022-12-24T02:37:23.035Z,79.03
2022-12-24T02:38:19.676Z,60.15
2022-12-24T02:39:23.834Z,111.03
2022-12-24T02:40:31.626Z,92.40
2022-12-24T02:42:08.323Z,75.40
2022-12-24T02:43:15.113Z,75.38
2022-12-24T02:44:11.827Z,49.25
2022-12-24T02:45:13.379Z,62.40
2022-12-24T02:46:31.916Z,70.83
2022-12-24T02:47:34.164Z,64.00
2022-12-24T02:49:28.605Z,76.55
2022-12-24T02:50:25.443Z,72.80
2022-12-24T02:51:25.010Z,61.03
2022-12-24T02:52:38.043Z,74.57
2022-12-24T02:54:32.693Z,88.20
2022-12-24T02:56:01.460Z,94.13
2022-12-24T02:57:45.967Z,104.15
2022-12-24T02:59:01.221Z,91.07
2022-12-24T03:00:01.630Z,88.30
2022-12-24T03:01:22.621Z,89.90
2022-12-24T03:03:07.748Z,85.13
2022-12-24T03:04:41.395Z,85.25
2022-12-24T03:05:50.321Z,87.57
2022-12-24T03:07:06.769Z,84.80
2022-12-24T03:08:15.442Z,77.90
2022-12-24T03:09:26.588Z,82.85
2022-12-24T03:10:52.739Z,77.70
2022-12-24T03:11:57.739Z,86.13
2022-12-24T03:13:00.429Z,76.07
2022-12-24T03:13:59.633Z,78.65
2022-12-24T03:14:57.130Z,71.70
2022-12-24T03:15:54.529Z,73.80
2022-12-24T03:16:51.396Z,81.72
2022-12-24T03:17:50.102Z,77.88
2022-12-24T03:18:49.552Z,60.47
2022-12-24T03:19:47.989Z,80.38
2022-12-24T03:20:51.289Z,85.93
2022-12-24T03:21:49.559Z,78.75
2022-12-24T03:22:46.499Z,75.85
2022-12-24T03:23:43.217Z,79.28
2022-12-24T03:24:39.951Z,74.57
2022-12-24T03:25:40.815Z,83.25
2022-12-24T03:26:39.195Z,70.40
2022-12-24T03:27:36.504Z,61.20
2022-12-24T03:28:33.756Z,51.10
2022-12-24T03:29:30.391Z,59.47
2022-12-24T03:30:27.202Z,57.47
2022-12-24T03:31:24.374Z,56.83
2022-12-24T03:32:28.487Z,58.47
2022-12-24T03:33:25.083Z,45.72
2022-12-24T03:34:21.679Z,56.92
2022-12-24T03:35:18.498Z,54.85
2022-12-24T03:36:15.161Z,56.67
2022-12-24T03:37:11.724Z,51.45
2022-12-24T03:38:08.324Z,52.65
2022-12-24T03:39:05.765Z,47.78
2022-12-24T03:40:02.590Z,33.42
2022-12-24T03:40:59.960Z,37.90
2022-12-24T03:41:56.696Z,36.78
2022-12-24T03:42:53.572Z,25.95
2022-12-24T03:43:50.231Z,22.67
2022-12-24T03:44:46.921Z,22.35
2022-12-24T03:45:43.729Z,28.30
2022-12-24T03:46:40.539Z,20.38
2022-12-24T03:47:37.209Z,19.02
2022-12-24T03:48:35.548Z,19.27
2022-12-24T03:49:32.205Z,16.42
2022-12-24T03:50:28.977Z,15.18
2022-12-24T03:51:26.773Z,20.15
2022-12-24T03:52:23.399Z,19.95
2022-12-24T03:53:19.985Z,28.52
2022-12-24T03:54:16.635Z,23.52
2022-12-24T03:55:13.496Z,30.63
2022-12-24T03:56:10.105Z,32.17
2022-12-24T03:57:06.758Z,53.22
2022-12-24T03:58:03.374Z,49.42
2022-12-24T03:58:59.924Z,38.45
2022-12-24T03:59:56.561Z,42.53
2022-12-24T04:00:54.286Z,50.25
2022-12-24T04:01:51.116Z,57.15
2022-12-24T04:02:48.005Z,50.60
2022-12-24T04:03:45.177Z,41.63
2022-12-24T04:04:41.980Z,41.38
2022-12-24T04:05:38.603Z,44.58
2022-12-24T04:06:35.305Z,50.50
2022-12-24T04:07:33.082Z,48.58
2022-12-24T04:08:29.733Z,65.65
2022-12-24T04:09:26.380Z,66.15
2022-12-24T04:10:22.915Z,62.28
2022-12-24T04:11:19.548Z,59.65
2022-12-24T04:12:16.170Z,61.33
2022-12-24T04:13:12.752Z,52.22
2022-12-24T04:14:09.369Z,46.63
2022-12-24T04:15:06.608Z,37.97
2022-12-24T04:16:08.653Z,67.03
2022-12-24T04:17:05.447Z,64.57
2022-12-24T04:18:02.147Z,68.25
2022-12-24T04:18:58.714Z,76.47
2022-12-24T04:19:56.034Z,66.57
2022-12-24T04:20:53.308Z,50.75
2022-12-24T04:21:49.974Z,49.00
2022-12-24T04:22:46.724Z,56.45
2022-12-24T04:23:43.893Z,82.97
2022-12-24T04:24:40.555Z,81.88
2022-12-24T04:25:37.323Z,89.55
2022-12-24T04:26:34.109Z,107.85
2022-12-24T04:27:31.308Z,86.65
2022-12-24T04:28:29.915Z,71.15
2022-12-24T04:29:26.710Z,88.80
2022-12-24T04:30:23.318Z,83.45
2022-12-24T04:31:20.231Z,72.18
2022-12-24T04:32:17.031Z,82.20
2022-12-24T04:33:13.811Z,87.53
2022-12-24T04:34:10.545Z,60.17
2022-12-24T04:35:07.498Z,66.47
2022-12-24T04:36:06.754Z,60.80
2022-12-24T04:37:03.999Z,60.85
2022-12-24T04:38:00.621Z,60.85
2022-12-24T04:38:57.297Z,61.90
2022-12-24T04:39:54.087Z,67.78
2022-12-24T04:41:08.754Z,63.92
2022-12-24T04:42:05.487Z,72.72
2022-12-24T04:43:05.448Z,65.85
2022-12-24T04:44:02.211Z,50.75
2022-12-24T04:44:58.846Z,53.92
2022-12-24T04:45:55.842Z,44.65
2022-12-24T04:46:52.536Z,47.47
2022-12-24T04:47:49.233Z,53.00
2022-12-24T04:48:48.178Z,49.58
2022-12-24T04:49:44.776Z,52.53
2022-12-24T04:50:41.378Z,46.47
2022-12-24T04:51:38.133Z,77.85
2022-12-24T04:52:35.079Z,68.38
2022-12-24T04:53:32.279Z,72.25
2022-12-24T04:54:28.942Z,52.88
2022-12-24T04:55:25.512Z,76.60
2022-12-24T04:56:24.929Z,48.67
2022-12-24T04:57:21.561Z,55.50
2022-12-24T04:58:18.175Z,54.20
2022-12-24T04:59:14.820Z,74.22
2022-12-24T05:00:12.049Z,65.68
2022-12-24T05:01:13.521Z,158.50
2022-12-24T05:02:10.398Z,81.07
2022-12-24T05:03:07.256Z,68.38
2022-12-24T05:04:03.955Z,129.93
2022-12-24T05:05:00.580Z,97.38
2022-12-24T05:06:05.316Z,141.85
2022-12-24T05:07:01.943Z,118.80
2022-12-24T05:07:58.555Z,133.95
2022-12-24T05:08:56.750Z,76.97
2022-12-24T05:09:53.384Z,80.15
2022-12-24T05:10:57.574Z,133.13
2022-12-24T05:11:54.220Z,228.70
2022-12-24T05:12:50.845Z,156.02
2022-12-24T05:13:48.257Z,236.40
2022-12-24T05:14:44.953Z,82.20
2022-12-24T05:15:41.707Z,71.38
2022-12-24T05:16:38.904Z,98.20
2022-12-24T05:17:35.567Z,94.05
2022-12-24T05:18:32.264Z,89.13
2022-12-24T05:19:28.963Z,74.10
2022-12-24T05:20:25.553Z,87.47
2022-12-24T05:21:23.932Z,78.30
2022-12-24T05:22:39.095Z,66.45
2022-12-24T05:23:55.558Z,54.60
2022-12-24T05:25:15.204Z,46.65
2022-12-24T05:26:26.601Z,41.45
2022-12-24T05:27:23.294Z,27.30
2022-12-24T05:28:19.917Z,20.23
2022-12-24T05:29:16.621Z,15.93
2022-12-24T05:30:13.411Z,20.10
2022-12-24T05:31:10.104Z,16.95
2022-12-24T05:32:06.725Z,17.38
2022-12-24T05:33:03.523Z,17.30
2022-12-24T05:34:01.502Z,20.65
2022-12-24T05:34:58.164Z,15.02
2022-12-24T05:35:54.812Z,19.05
2022-12-24T05:36:51.454Z,19.80
2022-12-24T05:37:48.100Z,15.57
2022-12-24T05:38:44.661Z,14.30
2022-12-24T05:39:41.247Z,17.33
2022-12-24T05:40:37.813Z,18.08
2022-12-24T05:41:34.362Z,12.52
2022-12-24T05:42:31.062Z,13.05
2022-12-24T05:43:27.761Z,16.52
2022-12-24T05:44:24.367Z,17.65
2022-12-24T05:45:21.070Z,18.02
2022-12-24T05:46:20.259Z,57.67
2022-12-24T05:47:16.911Z,51.65
2022-12-24T05:48:13.525Z,32.60
2022-12-24T05:49:10.436Z,21.52
2022-12-24T05:50:07.625Z,44.38
2022-12-24T05:51:08.870Z,29.90
2022-12-24T05:52:05.572Z,34.42
2022-12-24T05:53:02.166Z,51.58
2022-12-24T05:53:58.786Z,26.23
2022-12-24T05:54:55.392Z,74.97
2022-12-24T05:55:51.944Z,36.55
2022-12-24T05:56:48.525Z,47.45
2022-12-24T05:57:45.148Z,25.98
2022-12-24T05:58:42.759Z,21.67
2022-12-24T05:59:39.343Z,14.10
2022-12-24T06:00:35.964Z,17.65
2022-12-24T06:01:32.634Z,26.88
2022-12-24T06:02:29.343Z,18.30
2022-12-24T06:03:25.976Z,19.80
2022-12-24T06:04:28.426Z,16.92
2022-12-24T06:05:25.640Z,20.63
2022-12-24T06:06:24.718Z,12.95
2022-12-24T06:07:21.570Z,11.25
2022-12-24T06:08:18.348Z,8.63
2022-12-24T06:09:15.300Z,8.57
2022-12-24T06:10:11.910Z,12.02
2022-12-24T06:11:12.009Z,15.75
2022-12-24T06:12:08.649Z,12.60
2022-12-24T06:13:05.242Z,20.77
2022-12-24T06:14:01.866Z,16.52
2022-12-24T06:14:58.411Z,17.02
2022-12-24T06:15:59.968Z,13.35
2022-12-24T06:16:56.560Z,12.80
2022-12-24T06:17:53.135Z,14.70
2022-12-24T06:18:50.108Z,16.25
2022-12-24T06:19:46.723Z,15.52
2022-12-24T06:20:43.353Z,16.25
2022-12-24T06:21:40.011Z,22.95
2022-12-24T06:22:36.615Z,28.00
2022-12-24T06:23:35.258Z,32.80
2022-12-24T06:24:31.933Z,24.90
2022-12-24T06:25:28.513Z,27.00
2022-12-24T06:26:25.087Z,29.25
2022-12-24T06:27:21.773Z,22.67
2022-12-24T06:28:18.838Z,22.80
2022-12-24T06:29:15.478Z,19.80
2022-12-24T06:30:12.311Z,23.52
2022-12-24T06:31:13.136Z,20.77
2022-12-24T06:32:09.781Z,22.17
2022-12-24T06:33:06.418Z,25.90
2022-12-24T06:34:08.470Z,25.92
2022-12-24T06:35:05.283Z,30.75
2022-12-24T06:36:04.377Z,27.92
2022-12-24T06:37:01.000Z,27.73
2022-12-24T06:37:57.656Z,28.10
2022-12-24T06:38:55.470Z,30.80
2022-12-24T06:39:52.046Z,27.58
2022-12-24T06:40:48.863Z,16.92
2022-12-24T06:41:45.509Z,15.10
2022-12-24T06:42:42.123Z,10.00
2022-12-24T06:43:38.775Z,10.23
2022-12-24T06:44:35.579Z,12.43
2022-12-24T06:45:32.294Z,11.52
2022-12-24T06:46:29.087Z,13.68
2022-12-24T06:47:25.861Z,10.00
2022-12-24T06:48:22.612Z,17.35
2022-12-24T06:49:19.203Z,17.65
2022-12-24T06:50:16.230Z,19.35
2022-12-24T06:51:14.564Z,15.57
2022-12-24T06:52:11.163Z,12.57
2022-12-24T06:53:08.303Z,8.18
2022-12-24T06:54:04.974Z,7.55
2022-12-24T06:55:01.785Z,12.27
2022-12-24T06:56:06.182Z,12.93
2022-12-24T06:57:02.825Z,13.75
2022-12-24T06:57:59.463Z,20.50
2022-12-24T06:59:01.551Z,23.38
2022-12-24T07:00:01.622Z,26.33
2022-12-24T07:00:58.195Z,33.00
2022-12-24T07:01:54.884Z,42.38
2022-12-24T07:02:51.744Z,39.60
2022-12-24T07:03:48.628Z,43.97
2022-12-24T07:04:45.322Z,44.92
2022-12-24T07:05:42.368Z,46.38
2022-12-24T07:06:39.022Z,49.63
2022-12-24T07:07:39.218Z,52.00
2022-12-24T07:08:36.468Z,47.67
2022-12-24T07:09:33.204Z,53.72
2022-12-24T07:10:29.927Z,68.43
2022-12-24T07:11:26.841Z,70.03
2022-12-24T07:12:23.510Z,73.68
2022-12-24T07:13:20.161Z,50.05
2022-12-24T07:14:16.714Z,55.08
2022-12-24T07:15:15.048Z,62.55
2022-12-24T07:16:11.746Z,58.97
2022-12-24T07:17:08.632Z,58.72
2022-12-24T07:18:05.354Z,63.25
2022-12-24T07:19:04.036Z,61.95
2022-12-24T07:20:00.675Z,54.53
2022-12-24T07:20:58.176Z,60.58
2022-12-24T07:21:54.728Z,54.35
2022-12-24T07:22:51.307Z,49.90
2022-12-24T07:23:47.925Z,58.70
2022-12-24T07:24:44.501Z,55.38
2022-12-24T07:25:43.048Z,59.45
2022-12-24T07:26:39.718Z,49.58
2022-12-24T07:27:37.007Z,54.90
2022-12-24T07:28:34.018Z,55.78
2022-12-24T07:29:30.703Z,57.20
2022-12-24T07:30:27.372Z,47.33
2022-12-24T07:31:23.979Z,47.00
2022-12-24T07:32:20.845Z,56.50
2022-12-24T07:33:17.437Z,55.65
2022-12-24T07:34:14.068Z,51.70
2022-12-24T07:35:10.768Z,54.10
2022-12-24T07:36:10.659Z,55.08
2022-12-24T07:37:07.884Z,51.90
2022-12-24T07:38:04.483Z,57.78
2022-12-24T07:39:01.114Z,52.50
2022-12-24T07:39:57.762Z,49.92
2022-12-24T07:40:54.741Z,51.75
2022-12-24T07:41:51.445Z,57.38
2022-12-24T07:42:48.002Z,59.88
2022-12-24T07:43:44.785Z,58.55
2022-12-24T07:44:41.429Z,64.65
2022-12-24T07:45:39.523Z,70.88
2022-12-24T07:46:36.195Z,64.35
2022-12-24T07:47:33.051Z,71.60
2022-12-24T07:48:30.964Z,73.53
2022-12-24T07:49:27.692Z,80.97
2022-12-24T07:50:24.384Z,65.10
2022-12-24T07:51:21.043Z,92.50
2022-12-24T07:52:17.674Z,91.28
2022-12-24T07:53:14.236Z,93.63
2022-12-24T07:54:10.964Z,106.60
2022-12-24T07:55:07.888Z,110.05
2022-12-24T07:56:10.470Z,127.07
2022-12-24T07:57:09.267Z,134.52
2022-12-24T07:58:05.984Z,136.60
2022-12-24T07:59:02.579Z,151.55
2022-12-24T07:59:59.259Z,157.63
2022-12-24T08:00:58.155Z,160.10
2022-12-24T08:01:54.867Z,169.45
2022-12-24T08:02:51.775Z,163.18
2022-12-24T08:03:48.622Z,163.77
2022-12-24T08:04:45.435Z,170.02
2022-12-24T08:05:42.083Z,161.85
2022-12-24T08:06:39.342Z,156.38
2022-12-24T08:07:35.954Z,155.48
2022-12-24T08:08:32.525Z,164.70
2022-12-24T08:09:35.359Z,165.65
2022-12-24T08:10:31.921Z,170.82
2022-12-24T08:11:28.635Z,180.75
2022-12-24T08:12:25.364Z,195.27
2022-12-24T08:13:21.973Z,192.48
2022-12-24T08:14:18.624Z,189.70
2022-12-24T08:15:15.320Z,202.32
2022-12-24T08:16:12.233Z,187.55
2022-12-24T08:17:09.017Z,194.25
2022-12-24T08:18:05.754Z,192.73
2022-12-24T08:19:02.407Z,182.52
2022-12-24T08:19:59.072Z,211.10
2022-12-24T08:20:55.668Z,199.50
2022-12-24T08:21:52.255Z,202.75
2022-12-24T08:22:48.853Z,220.38
2022-12-24T08:23:47.270Z,230.52
2022-12-24T08:24:43.943Z,230.52
2022-12-24T08:25:45.412Z,222.60
2022-12-24T08:26:42.285Z,194.35
2022-12-24T08:27:39.101Z,169.95
2022-12-24T08:28:36.563Z,129.52
2022-12-24T08:29:33.202Z,125.03
2022-12-24T08:30:30.225Z,166.02
2022-12-24T08:31:26.990Z,129.23
2022-12-24T08:32:23.754Z,166.75
2022-12-24T08:33:20.895Z,159.45
2022-12-24T08:34:17.453Z,188.85
2022-12-24T08:35:14.212Z,190.30
2022-12-24T08:36:10.862Z,197.38
2022-12-24T08:37:07.439Z,191.85
2022-12-24T08:38:04.128Z,197.68
2022-12-24T08:39:03.935Z,192.02
2022-12-24T08:40:00.588Z,201.30
2022-12-24T08:40:57.298Z,200.98
2022-12-24T08:41:54.021Z,192.73
2022-12-24T08:42:50.807Z,194.85
2022-12-24T08:43:47.427Z,202.00
2022-12-24T08:44:44.297Z,179.88
2022-12-24T08:45:41.327Z,183.38
2022-12-24T08:46:38.017Z,169.93
2022-12-24T08:47:34.704Z,159.95
2022-12-24T08:48:32.974Z,173.63
2022-12-24T08:49:29.579Z,161.00
2022-12-24T08:50:28.467Z,149.27
2022-12-24T08:51:25.133Z,175.63
2022-12-24T08:52:21.731Z,167.32
2022-12-24T08:53:18.356Z,152.38
2022-12-24T08:54:15.031Z,171.05
2022-12-24T08:55:11.686Z,163.38
2022-12-24T08:56:10.387Z,147.52
2022-12-24T08:57:07.006Z,151.40
2022-12-24T08:58:03.693Z,151.25
2022-12-24T08:59:01.341Z,151.23
2022-12-24T08:59:57.902Z,153.75
2022-12-24T09:00:54.451Z,152.45
2022-12-24T09:01:51.222Z,161.35
2022-12-24T09:02:48.175Z,162.10
2022-12-24T09:03:45.100Z,161.02
2022-12-24T09:04:41.962Z,161.60
2022-12-24T09:05:40.260Z,154.73
2022-12-24T09:06:36.903Z,159.75
2022-12-24T09:07:33.594Z,154.88
2022-12-24T09:08:30.173Z,146.75
2022-12-24T09:09:34.114Z,133.77
2022-12-24T09:10:34.338Z,142.80
2022-12-24T09:11:31.822Z,134.48
2022-12-24T09:12:29.043Z,134.50
2022-12-24T09:13:25.653Z,135.20
2022-12-24T09:14:22.338Z,129.35
2022-12-24T09:15:19.590Z,124.30
2022-12-24T09:16:16.380Z,123.82
2022-12-24T09:17:13.073Z,122.20
2022-12-24T09:18:10.698Z,134.02
2022-12-24T09:19:07.392Z,124.47
2022-12-24T09:20:07.029Z,114.28
2022-12-24T09:21:08.134Z,114.72
2022-12-24T09:22:04.977Z,125.75
2022-12-24T09:23:01.671Z,113.47
2022-12-24T09:24:00.441Z,111.25
2022-12-24T09:24:57.169Z,97.05
2022-12-24T09:25:53.799Z,103.55
2022-12-24T09:26:57.344Z,110.10
2022-12-24T09:27:54.439Z,101.95
2022-12-24T09:28:52.698Z,99.25
2022-12-24T09:29:49.315Z,100.80
2022-12-24T09:30:45.883Z,106.90
2022-12-24T09:31:43.393Z,103.65
2022-12-24T09:32:40.153Z,103.30
2022-12-24T09:33:39.042Z,100.10
2022-12-24T09:34:35.712Z,95.72
2022-12-24T09:35:32.382Z,100.38
2022-12-24T09:36:28.945Z,97.90
2022-12-24T09:37:25.751Z,103.22
2022-12-24T09:38:22.461Z,105.03
2022-12-24T09:39:19.064Z,93.80
2022-12-24T09:40:26.008Z,99.20
2022-12-24T09:41:29.569Z,107.38
2022-12-24T09:42:41.174Z,104.35
2022-12-24T09:43:38.077Z,112.10
2022-12-24T09:44:49.409Z,109.20
2022-12-24T09:46:13.775Z,104.75
2022-12-24T09:47:22.601Z,103.00
2022-12-24T09:48:24.306Z,108.25
2022-12-24T09:49:31.911Z,94.63
2022-12-24T09:50:53.261Z,114.97
2022-12-24T09:51:55.551Z,102.93
2022-12-24T09:52:52.588Z,111.90
2022-12-24T09:53:56.864Z,103.97
2022-12-24T09:55:08.350Z,87.90
2022-12-24T09:56:12.144Z,94.53
2022-12-24T09:57:21.986Z,92.20
2022-12-24T09:58:35.422Z,89.80
2022-12-24T09:59:52.426Z,78.45
2022-12-24T10:00:50.511Z,94.18
2022-12-24T10:01:49.499Z,87.93
2022-12-24T10:02:46.601Z,77.32
2022-12-24T10:03:44.083Z,85.55
2022-12-24T10:04:42.864Z,71.10
2022-12-24T10:05:51.500Z,77.13
2022-12-24T10:06:59.204Z,89.50
2022-12-24T10:08:08.756Z,90.90
2022-12-24T10:09:29.795Z,81.45
2022-12-24T10:10:43.017Z,73.90
2022-12-24T10:11:46.402Z,73.50
2022-12-24T10:12:58.410Z,81.03
2022-12-24T10:14:27.153Z,68.97
2022-12-24T10:15:42.524Z,82.35
2022-12-24T10:17:14.315Z,82.25
2022-12-24T10:18:26.236Z,75.80
2022-12-24T10:19:33.803Z,77.68
2022-12-24T10:20:42.180Z,75.63
2022-12-24T10:22:07.977Z,76.90
2022-12-24T10:23:46.560Z,74.25
2022-12-24T10:24:56.441Z,69.50
2022-12-24T10:26:08.277Z,68.97
2022-12-24T10:27:15.099Z,66.45
2022-12-24T10:28:18.291Z,62.90
2022-12-24T10:29:28.192Z,72.85
2022-12-24T10:30:25.313Z,53.85
2022-12-24T10:31:41.632Z,51.63
2022-12-24T10:32:39.026Z,50.35
2022-12-24T10:33:43.051Z,42.38
2022-12-24T10:34:53.609Z,46.08
2022-12-24T10:35:55.050Z,31.85
2022-12-24T10:36:52.003Z,21.52
2022-12-24T10:37:51.081Z,23.10
2022-12-24T10:38:47.816Z,20.02
2022-12-24T10:39:44.627Z,17.33
2022-12-24T10:40:44.952Z,20.25
2022-12-24T10:41:41.817Z,31.45
2022-12-24T10:42:50.890Z,36.05
2022-12-24T10:43:48.964Z,44.10
2022-12-24T10:44:50.744Z,54.42
2022-12-24T10:45:55.692Z,54.63
2022-12-24T10:46:52.300Z,52.85
2022-12-24T10:47:54.775Z,45.38
2022-12-24T10:50:14.013Z,40.22
2022-12-24T10:51:40.469Z,47.97
2022-12-24T10:52:40.580Z,57.63
2022-12-24T10:53:43.138Z,56.50
2022-12-24T10:55:11.447Z,61.67
2022-12-24T10:56:10.662Z,55.78
2022-12-24T10:57:25.467Z,59.85
2022-12-24T10:58:22.190Z,55.63
2022-12-24T10:59:29.375Z,54.38
2022-12-24T11:00:30.237Z,60.15
2022-12-24T11:01:45.510Z,60.40
2022-12-24T11:02:42.335Z,60.17
2022-12-24T11:03:39.953Z,61.17
2022-12-24T11:04:51.941Z,60.80
2022-12-24T11:06:14.043Z,62.65
2022-12-24T11:07:19.835Z,61.40
2022-12-24T11:08:20.296Z,63.63
2022-12-24T11:09:36.555Z,62.38
2022-12-24T11:10:36.813Z,62.85
2022-12-24T11:11:35.544Z,64.30
2022-12-24T11:12:40.236Z,68.18
2022-12-24T11:13:52.231Z,66.20
2022-12-24T11:14:59.070Z,68.97
2022-12-24T11:16:16.469Z,73.15
2022-12-24T11:17:23.794Z,74.65
2022-12-24T11:18:20.486Z,68.15
2022-12-24T11:19:20.683Z,73.72
2022-12-24T11:20:26.422Z,73.30
2022-12-24T11:21:26.296Z,69.93
2022-12-24T11:22:30.753Z,68.30
2022-12-24T11:23:29.165Z,70.22
2022-12-24T11:24:34.932Z,71.30
2022-12-24T11:25:40.206Z,71.88
2022-12-24T11:26:36.846Z,75.22
2022-12-24T11:27:39.186Z,67.50
2022-12-24T11:28:37.342Z,70.28
2022-12-24T11:29:34.033Z,76.30
2022-12-24T11:30:32.209Z,71.63
2022-12-24T11:31:29.489Z,74.55
2022-12-24T11:32:26.171Z,76.40
2022-12-24T11:33:23.266Z,71.95
2022-12-24T11:34:30.611Z,73.30
2022-12-24T11:35:29.558Z,70.72
2022-12-24T11:36:27.716Z,65.60
2022-12-24T11:37:25.181Z,76.05
2022-12-24T11:38:25.192Z,71.72
2022-12-24T11:39:24.807Z,74.90
2022-12-24T11:40:23.998Z,80.90
2022-12-24T11:41:20.875Z,73.07
2022-12-24T11:42:32.839Z,76.50
2022-12-24T11:43:44.673Z,73.30
2022-12-24T11:44:49.050Z,72.15
2022-12-24T11:45:51.848Z,71.72
2022-12-24T11:46:52.483Z,68.20
2022-12-24T11:47:49.426Z,69.65
2022-12-24T11:48:46.719Z,75.25
2022-12-24T11:49:43.392Z,69.95
2022-12-24T11:50:40.006Z,71.65
2022-12-24T11:51:36.608Z,67.15
2022-12-24T11:52:33.477Z,67.72
2022-12-24T11:53:38.845Z,72.03
2022-12-24T11:54:48.647Z,74.63
2022-12-24T11:55:49.612Z,75.97
2022-12-24T11:56:50.052Z,70.55
2022-12-24T11:57:59.444Z,74.47
2022-12-24T11:59:02.427Z,72.68
2022-12-24T11:59:59.229Z,72.47
2022-12-24T12:01:25.271Z,72.45
2022-12-24T12:02:28.353Z,70.28
2022-12-24T12:03:32.580Z,73.82
2022-12-24T12:04:33.161Z,64.22
2022-12-24T12:05:35.203Z,75.82
2022-12-24T12:06:42.042Z,68.97
2022-12-24T12:07:39.232Z,72.45
2022-12-24T12:08:37.788Z,64.75
2022-12-24T12:09:40.735Z,70.80
2022-12-24T12:10:41.223Z,76.05
2022-12-24T12:11:40.864Z,72.15
2022-12-24T12:12:51.047Z,76.22
2022-12-24T12:13:48.248Z,77.07
2022-12-24T12:14:55.869Z,70.47
2022-12-24T12:16:26.395Z,77.70
2022-12-24T12:17:42.038Z,72.90
2022-12-24T12:18:42.164Z,73.05
2022-12-24T12:19:48.702Z,70.93
2022-12-24T12:20:53.102Z,72.80
2022-12-24T12:21:50.112Z,69.95
2022-12-24T12:23:01.653Z,75.35
2022-12-24T12:24:13.114Z,69.97
2022-12-24T12:25:21.825Z,71.32
2022-12-24T12:26:28.418Z,73.50
2022-12-24T12:27:46.615Z,68.40
2022-12-24T12:28:49.500Z,64.15
2022-12-24T12:29:52.479Z,72.03
2022-12-24T12:31:02.222Z,71.00
2022-12-24T12:32:06.636Z,74.82
2022-12-24T12:33:20.576Z,65.10
2022-12-24T12:34:26.800Z,78.85
2022-12-24T12:35:28.351Z,75.70
2022-12-24T12:36:31.471Z,65.93
2022-12-24T12:37:37.017Z,69.13
2022-12-24T12:38:33.863Z,72.35
2022-12-24T12:39:31.809Z,69.45
2022-12-24T12:40:50.595Z,58.65
2022-12-24T12:42:15.257Z,51.92
2022-12-24T12:43:47.704Z,58.50
2022-12-24T12:44:56.237Z,37.05
2022-12-24T12:46:21.357Z,52.88
2022-12-24T12:47:36.951Z,40.90
2022-12-24T12:49:09.774Z,57.42
2022-12-24T12:50:18.293Z,56.58
2022-12-24T12:51:24.516Z,42.08
2022-12-24T12:52:50.504Z,31.05
2022-12-24T12:54:31.824Z,25.73
2022-12-24T12:55:46.269Z,27.27
2022-12-24T12:56:49.016Z,23.75
2022-12-24T12:57:47.487Z,27.90
2022-12-24T12:58:51.302Z,23.17
2022-12-24T13:00:05.290Z,25.15
2022-12-24T13:01:26.035Z,23.05